Weather observations for the past three days for
Huntsville, Madison County Executive Airport
Metric (Imperial)
Date Time (cdt) Wind (kph) Vis. (km) Weather Sky Cond. Temperature (ºC) Relative Humidity Wind Chill (°C) Heat Index (°C) Pressure Precipitation (cm)
Air Dwpt 6 hour altimeter (cm) sea level (mb) 1 hr 3 hr 6 hr
Max. Min.
05 19:35 S 17 16.09 Overcast OVC048 22.6 12.1 52% 75.82 0.0
05 19:15 S 20 G 30 16.09 Overcast BKN050 OVC070 22.8 12.1 51% 75.82 0.0
05 18:55 S 19 G 28 16.09 Overcast SCT050 OVC070 22.8 12.1 25.4 22.6 51% 75.79 0.0
05 18:35 S 20 16.09 Overcast BKN050 OVC080 23.2 12.1 50% 75.84 0.0
05 18:15 S 24 16.09 Overcast SCT050 OVC070 23.3 11.9 49% 75.87 0.0
05 17:55 S 22 16.09 Overcast SCT060 OVC070 23.4 11.7 48% 75.87 0.0
05 17:35 S 26 G 37 16.09 Overcast OVC060 23.2 11.6 48% 75.9 0.0
05 17:15 S 22 G 31 16.09 Overcast OVC060 23.3 11.4 47% 75.9 0.0
05 16:55 S 26 G 31 16.09 Overcast BKN070 OVC080 23.6 11.3 46% 75.9 0.0
05 16:35 S 26 G 31 16.09 Mostly Cloudy BKN080 23.3 11.7 48% 75.9 0.0
05 16:15 S 20 G 30 16.09 Partly Cloudy SCT120 24 11.2 45% 25 75.9 0.0
05 15:55 S 30 G 37 16.09 Mostly Cloudy BKN120 23.8 10.6 43% 75.87 0.0
05 15:35 S 20 16.09 Mostly Cloudy SCT049 BKN120 23.7 9.9 42% 75.87 0.0
05 15:15 SE 11 16.09 Light Rain SCT028 SCT048 OVC110 22.7 11 48% 75.9 0.0
05 14:55 S 7 16.09 Overcast OVC110 23.1 9 41% 75.95 0.0
05 14:35 S 17 16.09 Light Rain SCT065 BKN100 OVC120 23.2 9.6 42% 75.9 0.0
05 14:15 SW 20 G 30 16.09 Mostly Cloudy SCT095 BKN120 23.5 8.1 37% 75.97 0.0
05 13:55 SW 22 G 31 16.09 Partly Cloudy SCT120 23.9 8.5 38% 25 76.05 0.0
05 13:35 S 20 G 31 16.09 Partly Cloudy SCT120 24.7 8.7 36% 25 76.02 0.0
05 13:15 S 24 G 31 16.09 Fair CLR 24.4 9.2 38% 25 76.05 0.0
05 12:55 SW 22 G 28 16.09 Fair CLR 24 9.3 25 15.8 39% 25 76.05 0.0
05 12:35 S 22 G 31 16.09 Fair CLR 24.8 9.9 39% 26 76.05 0.0
05 11:55 SW 24 G 31 16.09 Fair CLR 23.8 9.6 41% 76.1 0.0
05 11:35 S 24 G 37 16.09 Fair CLR 23.6 9.1 40% 76.1 0.0
05 11:15 SW 22 16.09 Fair CLR 23.3 9.7 42% 76.1 0.0
05 10:55 S 17 G 26 16.09 Fair CLR 22.7 10.3 46% 76.1 0.0
05 10:35 S 15 16.09 Fair CLR 21.8 10.6 49% 76.1 0.0
05 10:15 SW 15 16.09 Fair CLR 21.7 10.7 50% 76.1 0.0
05 09:55 S 17 16.09 Fair CLR 20.9 10.7 52% 76.12 0.0
05 09:35 S 15 16.09 Fair CLR 20 10.7 55% 76.12 0.0
05 09:15 S 13 16.09 Fair CLR 19.2 10.5 57% 76.1 0.0
05 08:55 S 15 16.09 Fair CLR 18.8 10.5 59% 76.1 0.0
05 08:35 S 17 16.09 Fair CLR 18.8 10.1 57% 76.1 0.0
05 08:15 S 13 16.09 Fair CLR 17.9 9.7 59% 76.1 0.0
05 07:35 S 15 16.09 Fair CLR 17.2 9.2 60% 76.07 0.0
05 07:15 S 15 16.09 Fair CLR 16.5 9 61% 76.07 0.0
05 06:55 S 15 16.09 Fair CLR 15.9 9 17.3 14.6 64% 76.05 0.0
05 06:15 S 15 16.09 Fair CLR 15.2 8.8 66% 76 0.0
05 05:55 S 13 16.09 Fair CLR 15.4 8.5 64% 76 0.0
05 05:35 SW 13 16.09 Fair CLR 15.6 8.3 62% 75.97 0.0
05 05:15 SW 13 16.09 Fair CLR 15.5 8.1 62% 75.97 0.0
05 04:55 SW 9 16.09 Fair CLR 15.9 8 60% 75.95 0.0
05 04:35 S 17 16.09 Fair CLR 17 7.9 55% 75.95 0.0
05 04:15 S 20 16.09 Fair CLR 17.1 7.8 55% 75.92 0.0
05 03:55 S 17 16.09 Fair CLR 17.3 7.6 53% 75.92 0.0
05 03:35 S 15 16.09 Fair CLR 17.2 7.7 54% 75.95 0.0
05 03:15 S 13 16.09 Fair CLR 15.7 7.9 60% 75.95 0.0
05 02:55 S 13 16.09 Fair CLR 14.9 8.3 65% 75.97 0.0
05 02:35 S 13 16.09 Fair CLR 14.8 8.7 67% 76 0.0
05 02:15 S 11 16.09 Fair CLR 14.8 8.6 67% 76 0.0
05 01:55 S 9 16.09 Fair CLR 15 8.5 65% 76 0.0
05 01:35 S 11 16.09 Fair CLR 15.3 8.6 65% 76 0.0
05 01:15 S 11 16.09 Fair CLR 15.9 8.6 62% 76.02 0.0
05 00:55 S 9 16.09 Fair CLR 15.9 8.8 23.2 14.2 63% 76.02 0.0
05 00:35 S 9 16.09 Fair CLR 16.3 8.8 61% 76.02 0.0
05 00:15 S 7 16.09 Fair CLR 15.2 9.3 68% 76.02 0.0
04 23:55 S 9 16.09 Fair CLR 14.8 9.4 70% 76.02 0.0
04 23:35 S 7 16.09 Fair CLR 16.1 8.5 61% 76.02 0.0
04 23:15 S 7 16.09 Fair CLR 16.6 8.6 59% 76.02 0.0
04 22:55 S 7 16.09 Fair CLR 17.1 8.9 59% 76.02 0.0
04 22:35 S 9 16.09 Fair CLR 17.5 8.9 57% 76.02 0.0
04 22:15 S 9 16.09 Fair CLR 17.3 9 58% 76.02 0.0
04 21:55 S 11 16.09 Fair CLR 18.4 8.3 52% 76.02 0.0
04 21:35 S 7 16.09 Fair CLR 18.1 8.6 54% 76.02 0.0
04 21:15 S 6 16.09 Fair CLR 18 8.9 55% 76 0.0
04 20:55 S 7 16.09 Fair CLR 20.5 8.3 46% 76 0.0
04 20:35 S 7 16.09 Fair CLR 21.4 8 42% 75.97 0.0
04 20:15 S 11 16.09 Fair CLR 21.5 8.2 43% 75.97 0.0
04 19:55 S 13 16.09 Fair CLR 21.4 8.5 44% 75.97 0.0
04 19:35 S 17 16.09 Fair CLR 22.5 8.7 41% 75.97 0.0
04 19:15 S 17 16.09 Fair CLR 22.9 9 41% 75.95 0.0
04 18:55 SW 15 16.09 Fair CLR 23.3 9 26.5 23.2 40% 75.95 0.0
04 18:35 SW 19 16.09 Fair CLR 24 8.9 38% 25 75.95 0.0
04 18:15 SW 22 16.09 Fair CLR 24.7 9 37% 25 75.95 0.0
04 17:55 S 22 16.09 Fair CLR 25.6 7.4 31% 26 75.95 0.0
04 17:35 S 20 G 31 16.09 Fair CLR 25.6 9 35% 26 75.97 0.0
04 17:15 SW 20 16.09 Fair CLR 25.6 8.3 33% 26 75.97 0.0
04 16:55 S 24 G 37 16.09 Partly Cloudy SCT060 26 8.1 32% 26 75.97 0.0
04 16:35 S 17 G 33 16.09 Partly Cloudy SCT060 26 8.6 33% 26 75.97 0.0
04 16:15 S 20 G 33 16.09 Partly Cloudy SCT060 25.4 10.1 38% 26 75.97 0.0
04 15:55 S 24 G 31 16.09 Partly Cloudy SCT060 26 9.9 36% 26 76 0.0
04 15:35 SW 26 16.09 Partly Cloudy SCT060 26.2 10.6 38% 26 76 0.0
04 15:15 SW 17 16.09 Fair CLR 25.4 10.4 39% 26 76.02 0.0
04 14:55 S 15 16.09 Fair CLR 25.8 10.2 38% 26 76.02 0.0
04 14:35 SW 19 16.09 Fair CLR 25.8 10.5 38% 26 76.05 0.0
04 14:15 SW 13 16.09 Fair CLR 25.2 10.5 40% 26 76.07 0.0
04 13:55 S 24 16.09 Fair CLR 25 9.9 39% 26 76.1 0.0
04 13:35 SW 20 16.09 Fair CLR 24.9 10.7 41% 26 76.12 0.0
04 13:15 S 15 16.09 Fair CLR 24.5 11.5 44% 26 76.12 0.0
04 12:55 SW 15 G 26 16.09 Fair CLR 24.4 10.5 24.7 10.7 42% 25 76.15 0.0
04 12:35 SW 20 G 30 16.09 Fair CLR 23.9 10.6 43% 25 76.17 0.0
04 12:15 SW 20 16.09 Fair CLR 24.1 11.1 44% 25 76.2 0.0
04 11:55 SW 19 16.09 Fair CLR 23.5 11 45% 76.2 0.0
04 11:35 SW 15 G 28 16.09 Fair CLR 23.2 10.7 45% 76.23 0.0
04 11:15 SW 13 16.09 Fair CLR 22.5 10.1 45% 76.25 0.0
04 10:55 W 22 G 31 16.09 Fair CLR 22.3 10 46% 76.28 0.0
04 10:35 SW 20 16.09 Fair CLR 21.5 9.3 46% 76.28 0.0
04 10:15 S 15 16.09 Fair CLR 20.9 9 47% 76.28 0.0
04 09:55 S 19 16.09 Fair CLR 20.5 8.4 46% 76.28 0.0
04 09:35 SW 19 16.09 Fair CLR 19.9 8 46% 76.3 0.0
04 09:15 SW 19 16.09 Fair CLR 19.1 7.5 47% 76.3 0.0
04 08:55 S 19 16.09 Fair CLR 18.4 7.2 48% 76.33 0.0
04 08:35 S 17 16.09 Fair CLR 17.4 7 51% 76.33 0.0
04 08:15 S 15 16.09 Fair CLR 16.5 7 54% 76.33 0.0
04 07:55 S 13 16.09 Fair CLR 15.8 6.3 53% 76.33 0.0
04 07:35 SE 6 16.09 Fair CLR 13.1 7.3 68% 76.3 0.0
04 07:15 SE 6 16.09 Fair CLR 12.4 6.1 66% 76.3 0.0
04 06:55 SE 6 11.27 Fog/Mist CLR 10.2 7.7 10.4 7.1 85% 76.28 0.0
04 06:35 Calm 16.09 Fair CLR 8 6.4 90% 76.28 0.0
04 06:15 Calm 16.09 Fair CLR 8.2 6.9 92% 76.25 0.0
04 05:55 Calm 16.09 Fair CLR 7.7 6.2 90% 76.25 0.0
04 05:35 Calm 16.09 Fair CLR 7.5 6.3 92% 76.25 0.0
04 05:15 Calm 16.09 Fair CLR 8.3 6.2 87% 76.25 0.0
04 04:55 Calm 16.09 Fair CLR 7.8 6.1 89% 76.25 0.0
04 04:35 Calm 16.09 Fair CLR 8 6.1 88% 76.25 0.0
04 04:15 Calm 16.09 Fair CLR 8.7 5.9 83% 76.25 0.0
04 03:55 SE 6 16.09 Fair CLR 8.7 6.3 85% 76.25 0.0
04 03:35 Calm 16.09 Fair CLR 8.6 6.4 86% 76.25 0.0
04 03:15 Calm 16.09 Fair CLR 8 6.5 90% 76.25 0.0
04 02:55 Calm 16.09 Fair CLR 8.9 6.3 84% 76.25 0.0
04 02:35 SE 6 16.09 Fair CLR 8.6 6.6 87% 76.25 0.0
04 02:15 Calm 16.09 Fair CLR 7.8 6.2 90% 76.28 0.0
04 01:55 Calm 16.09 Fair CLR 8.2 6.1 87% 76.28 0.0
04 01:35 Calm 16.09 Fair CLR 7.8 5.7 87% 76.28 0.0
04 01:15 SE 6 16.09 Fair CLR 9.5 6.1 80% 76.3 0.0
04 00:55 Calm 16.09 Fair CLR 10 5.8 18 8.9 75% 76.33 0.0
04 00:35 SE 6 16.09 Fair CLR 9 6.5 85% 76.33 0.0
04 00:15 Calm 16.09 Fair CLR 9.6 6.2 80% 76.35 0.0
03 23:55 Calm 16.09 Fair CLR 9.6 6.2 80% 76.33 0.0
03 23:35 Calm 16.09 Fair CLR 9.6 6 78% 76.35 0.0
03 23:15 E 6 16.09 Fair CLR 10.2 5.9 75% 76.33 0.0
03 22:55 Calm 16.09 Fair CLR 11.1 6.4 73% 76.33 0.0
03 22:35 Calm 16.09 Fair CLR 10.6 5.8 72% 76.35 0.0
03 22:15 S 6 16.09 Fair CLR 11.7 6.1 69% 76.38 0.0
03 21:55 S 6 16.09 Fair CLR 11.2 6.5 73% 76.38 0.0
03 21:35 Calm 16.09 Fair CLR 11.8 6.1 68% 76.38 0.0
03 21:15 S 6 16.09 Fair CLR 12 5.4 64% 76.38 0.0
03 20:55 Calm 16.09 Fair CLR 13.3 6 62% 76.35 0.0
03 20:35 Calm 16.09 Fair CLR 12.8 5.4 61% 76.33 0.0
03 20:15 Calm 16.09 Fair CLR 13.4 5.3 58% 76.33 0.0
03 19:55 Calm 16.09 Fair CLR 13.9 5.8 58% 76.33 0.0
03 19:35 S 6 16.09 Fair CLR 16.6 5.6 48% 76.3 0.0
03 19:15 W 7 16.09 Fair CLR 17.7 3.8 40% 76.33 0.0
03 18:55 W 9 16.09 Fair CLR 18.1 3.6 20.1 17.2 38% 76.33 0.0
03 18:35 W 13 16.09 Fair CLR 18.3 3.9 39% 76.35 0.0
03 18:15 W 9 16.09 Fair CLR 18.8 4.1 38% 76.35 0.0
03 17:55 NW 11 16.09 Fair CLR 19.2 4 37% 76.35 0.0
03 17:35 SW 17 16.09 Fair CLR 19.4 3.3 35% 76.35 0.0
03 17:15 W 11 16.09 Fair CLR 19.6 4 36% 76.38 0.0
03 16:55 NW 11 16.09 Fair CLR 19.5 4 36% 76.38 0.0
03 16:35 W 17 16.09 Fair CLR 20 4.4 36% 76.4 0.0
03 16:15 W 11 16.09 Fair CLR 19.7 5.3 39% 76.4 0.0
03 15:55 W 15 16.09 Fair CLR 19.3 4 37% 76.43 0.0
03 15:35 W 17 16.09 Fair CLR 19.7 4.7 37% 76.43 0.0
03 15:15 NW 11 16.09 Fair CLR 19.4 4.7 38% 76.45 0.0
03 14:55 W 13 16.09 Fair CLR 19.4 3.7 36% 76.5 0.0
03 14:35 SW 13 16.09 Fair CLR 19.1 4.1 37% 76.53 0.0
03 14:15 S 11 16.09 Fair CLR 19.1 3.6 36% 76.56 0.0
03 13:55 W 17 G 28 16.09 Fair CLR 18.9 5 40% 76.58 0.0
03 13:35 NW 9 16.09 Fair CLR 18.3 3.8 38% 76.58 0.0
03 13:15 SW 11 16.09 Fair CLR 18 3.4 38% 76.61 0.0
03 12:55 S 11 16.09 Fair CLR 17.8 3.6 18.2 6.2 39% 76.61 0.0
03 12:35 SW 11 16.09 Fair CLR 17.5 3.3 39% 76.63 0.0
03 12:15 W 7 16.09 Fair CLR 16.5 2.7 40% 76.66 0.0
03 11:55 W 11 16.09 Fair CLR 16.4 3.7 43% 76.68 0.0
03 11:35 S 7 16.09 Fair CLR 16.3 3 41% 76.68 0.0
03 11:15 S 9 16.09 Fair CLR 15.1 2.9 44% 76.68 0.0
03 10:55 SW 9 16.09 Fair CLR 15.1 3.6 46% 76.68 0.0
03 10:35 S 7 16.09 Fair CLR 15 2.9 44% 76.71 0.0
03 10:15 Calm 16.09 Fair CLR 14.2 3.5 49% 76.71 0.0
03 09:55 S 6 16.09 Fair CLR 13.5 4.3 54% 76.71 0.0
03 09:35 N 7 16.09 Fair CLR 12.8 4.8 59% 76.71 0.0
03 09:15 E 6 16.09 Fair CLR 12.2 4.7 60% 76.71 0.0
03 08:55 NE 6 16.09 Fair CLR 12 5.5 65% 76.71 0.0
03 08:35 Calm 16.09 Fair CLR 10.8 6.6 76% 76.71 0.0
03 08:15 Calm 16.09 Fair CLR 10 6.6 80% 76.68 0.0
03 07:55 N 6 16.09 Fair CLR 9 7.3 89% 76.68 0.0
03 07:35 N 6 16.09 Fair CLR 7.9 7.2 95% 76.68 0.0
03 07:15 Calm 16.09 Fair CLR 6.9 6.4 97% 76.66 0.0
03 06:55 Calm 16.09 Fair CLR 6.1 5.7 7.8 4.8 97% 76.66 0.0
03 06:35 Calm 16.09 Fair CLR 5.1 4.7 97% 76.63 0.0
03 06:15 Calm 16.09 Fair CLR 5.1 4.7 97% 76.63 0.0
03 05:55 Calm 16.09 Fair CLR 5 4.5 97% 76.61 0.0
03 05:35 Calm 16.09 Fair CLR 5.3 4.9 97% 76.61 0.0
03 05:15 Calm 16.09 Fair CLR 5.5 5 97% 76.58 0.0
03 04:55 Calm 16.09 Fair CLR 5.6 5.2 97% 76.58 0.0
03 04:35 Calm 16.09 Fair CLR 5.7 5.3 97% 76.58 0.0
03 04:15 N 6 16.09 Fair CLR 6 5.3 95% 76.58 0.0
03 03:55 Calm 16.09 Fair CLR 6.1 5.3 95% 76.58 0.0
03 03:35 Calm 16.09 Fair CLR 6.7 5.7 93% 76.58 0.0
03 03:15 Calm 16.09 Fair CLR 6.4 6 97% 76.56 0.0
03 02:55 Calm 16.09 Fair CLR 6.1 5.6 97% 76.56 0.0
03 02:35 Calm 16.09 Fair CLR 6.5 5.9 96% 76.53 0.0
03 02:15 Calm 16.09 Fair CLR 6.6 5.8 95% 76.53 0.0
03 01:55 Calm 16.09 Fair CLR 7.2 6 92% 76.53 0.0
03 01:35 Calm 16.09 Fair CLR 7.5 6.1 91% 76.5 0.0
03 01:15 N 6 16.09 Fair CLR 7.7 6 89% 76.5 0.0
03 00:55 NW 6 16.09 Fair CLR 7.5 6.3 16.7 7.4 92% 76.5 0.0
03 00:35 NW 7 16.09 Fair CLR 8.1 6 87% 7 76.5 0.0
03 00:15 Calm 16.09 Fair CLR 8.5 5.5 82% 76.5 0.0
02 23:55 N 9 16.09 Fair CLR 9.2 5.2 76% 8 76.48 0.0
02 23:35 N 6 16.09 Fair CLR 9.9 5.1 72% 76.48 0.0
02 23:15 N 11 16.09 Fair CLR 10.4 4.9 69% 76.48 0.0
02 22:55 N 11 16.09 Fair CLR 9.9 4.8 71% 9 76.45 0.0
02 22:35 N 13 16.09 Fair CLR 10.5 4.6 67% 76.45 0.0
02 22:15 N 9 16.09 Fair CLR 11.8 4.2 60% 76.45 0.0
02 21:55 N 11 16.09 Fair CLR 12.1 4 58% 76.43 0.0
02 21:35 N 15 16.09 Fair CLR 12.7 3.7 55% 76.4 0.0
02 21:15 N 19 16.09 Fair CLR 13.3 3.5 52% 76.4 0.0
02 20:55 N 19 16.09 Partly Cloudy SCT075 13.6 3.7 51% 76.38 0.0
02 20:35 N 9 16.09 Partly Cloudy SCT075 11.6 4.7 63% 76.33 0.0
02 20:15 W 6 16.09 Fair CLR 13.3 4 54% 76.28 0.0
02 19:55 NW 9 16.09 Mostly Cloudy SCT029 SCT055 BKN110 13.6 3.9 52% 76.28 0.0
Date Time (cdt) Wind (kph) Vis. (km) Weather Sky Cond. Air Dwpt Max. Min. Relative Humidity Wind Chill (°C) Heat Index (°C) altimeter (cm) sea level (mb) 1 hr 3 hr 6 hr
6 hour
Temperature (ºC) Pressure Precipitation (cm)